SAS43M EBBR-EKCH
Flight info
| Callsign | SAS43M |
|---|---|
| Flight time | 1h 14m |
| Altitude | 38000 |
| Route | NIK L191 VICOT N873 SPY DCT DOSUR/N0450F390 P729 TUDLO |
| Aircraft | A20N/M-SDE3FGIJ1RWXY/ALB1 |
Departure
| Time | 2026-05-06 19:41 |
|---|---|
| Airport | Brussels Airport (EBBR) |
Arrival
| Time | 2026-05-06 20:55 |
|---|---|
| Airport | Copenhagen Kastrup Airport (EKCH) |
| Time | Latitude | Longitude | Altitude | Speed | Heading |
|---|---|---|---|---|---|
| 2026-05-06 19:11 | 50.90311 | 4.48685 | 193 ft | 0 kts | 336° |
| 2026-05-06 19:30 | 50.90309 | 4.48686 | 193 ft | 1 kts | 336° |
| 2026-05-06 19:31 | 50.90295 | 4.48696 | 193 ft | 2 kts | 336° |
| 2026-05-06 19:31 | 50.90282 | 4.48705 | 193 ft | 2 kts | 336° |
| 2026-05-06 19:31 | 50.90254 | 4.48724 | 193 ft | 2 kts | 336° |
| 2026-05-06 19:32 | 50.90241 | 4.48733 | 193 ft | 1 kts | 337° |
| 2026-05-06 19:32 | 50.90231 | 4.48731 | 193 ft | 1 kts | 43° |
| 2026-05-06 19:32 | 50.90227 | 4.48722 | 193 ft | 1 kts | 75° |
| 2026-05-06 19:32 | 50.90226 | 4.48715 | 193 ft | 0 kts | 65° |
| 2026-05-06 19:35 | 50.90232 | 4.48739 | 193 ft | 5 kts | 65° |
| 2026-05-06 19:35 | 50.90259 | 4.48829 | 193 ft | 11 kts | 64° |
| 2026-05-06 19:36 | 50.90298 | 4.48962 | 193 ft | 13 kts | 65° |
| 2026-05-06 19:36 | 50.90340 | 4.49105 | 193 ft | 14 kts | 65° |
| 2026-05-06 19:36 | 50.90382 | 4.49253 | 193 ft | 15 kts | 64° |
| 2026-05-06 19:36 | 50.90419 | 4.49405 | 193 ft | 14 kts | 94° |
| 2026-05-06 19:37 | 50.90358 | 4.49534 | 193 ft | 15 kts | 158° |
| 2026-05-06 19:37 | 50.90256 | 4.49511 | 193 ft | 15 kts | 195° |
| 2026-05-06 19:37 | 50.90149 | 4.49467 | 193 ft | 16 kts | 193° |
| 2026-05-06 19:37 | 50.90038 | 4.49425 | 193 ft | 16 kts | 196° |
| 2026-05-06 19:38 | 50.89926 | 4.49376 | 193 ft | 16 kts | 194° |
| 2026-05-06 19:38 | 50.89811 | 4.49330 | 193 ft | 17 kts | 194° |
| 2026-05-06 19:38 | 50.89692 | 4.49282 | 193 ft | 17 kts | 194° |
| 2026-05-06 19:38 | 50.89594 | 4.49214 | 193 ft | 14 kts | 218° |
| 2026-05-06 19:39 | 50.89497 | 4.49159 | 193 ft | 15 kts | 192° |
| 2026-05-06 19:39 | 50.89393 | 4.49117 | 193 ft | 16 kts | 193° |
| 2026-05-06 19:39 | 50.89283 | 4.49074 | 193 ft | 16 kts | 194° |
| 2026-05-06 19:39 | 50.89178 | 4.49035 | 193 ft | 12 kts | 177° |
| 2026-05-06 19:40 | 50.89149 | 4.49101 | 193 ft | 3 kts | 75° |
| 2026-05-06 19:40 | 50.89152 | 4.49116 | 193 ft | 7 kts | 73° |
| 2026-05-06 19:40 | 50.89253 | 4.49555 | 193 ft | 80 kts | 69° |
| 2026-05-06 19:40 | 50.89525 | 4.50737 | 194 ft | 144 kts | 68° |
| 2026-05-06 19:41 | 50.89882 | 4.52331 | 620 ft | 159 kts | 68° |
| 2026-05-06 19:41 | 50.90299 | 4.53957 | 1340 ft | 160 kts | 62° |
| 2026-05-06 19:41 | 50.90772 | 4.55393 | 2136 ft | 154 kts | 51° |
| 2026-05-06 19:41 | 50.91662 | 4.56174 | 2778 ft | 156 kts | 1° |
| 2026-05-06 19:42 | 50.92666 | 4.55534 | 3391 ft | 168 kts | 323° |
| 2026-05-06 19:42 | 50.93514 | 4.54159 | 3893 ft | 182 kts | 319° |
| 2026-05-06 19:42 | 50.94439 | 4.52670 | 4347 ft | 198 kts | 319° |
| 2026-05-06 19:42 | 50.95453 | 4.51072 | 4810 ft | 215 kts | 319° |
| 2026-05-06 19:43 | 50.96558 | 4.49352 | 5208 ft | 238 kts | 318° |
| 2026-05-06 19:43 | 50.97798 | 4.47431 | 5733 ft | 257 kts | 318° |
| 2026-05-06 19:43 | 50.99086 | 4.45435 | 6456 ft | 267 kts | 317° |
| 2026-05-06 19:43 | 51.00415 | 4.43377 | 7381 ft | 270 kts | 317° |
| 2026-05-06 19:44 | 51.01747 | 4.41311 | 8279 ft | 273 kts | 317° |
| 2026-05-06 19:44 | 51.03128 | 4.39174 | 9167 ft | 277 kts | 317° |
| 2026-05-06 19:44 | 51.04504 | 4.37043 | 10035 ft | 281 kts | 316° |
| 2026-05-06 19:44 | 51.05936 | 4.34827 | 10736 ft | 291 kts | 316° |
| 2026-05-06 19:45 | 51.07422 | 4.32527 | 11185 ft | 309 kts | 316° |
| 2026-05-06 19:45 | 51.09014 | 4.30059 | 11600 ft | 327 kts | 316° |
| 2026-05-06 19:45 | 51.10653 | 4.27513 | 12190 ft | 338 kts | 316° |
| 2026-05-06 19:45 | 51.12348 | 4.24880 | 12991 ft | 342 kts | 316° |
| 2026-05-06 19:46 | 51.14047 | 4.22238 | 13810 ft | 345 kts | 315° |
| 2026-05-06 19:46 | 51.15792 | 4.19586 | 14585 ft | 348 kts | 317° |
| 2026-05-06 19:46 | 51.17652 | 4.17088 | 15329 ft | 352 kts | 321° |
| 2026-05-06 19:46 | 51.19640 | 4.14695 | 16074 ft | 356 kts | 323° |
| 2026-05-06 19:47 | 51.21647 | 4.12340 | 16818 ft | 360 kts | 323° |
| 2026-05-06 19:47 | 51.23664 | 4.09978 | 17511 ft | 364 kts | 323° |
| 2026-05-06 19:47 | 51.25773 | 4.07607 | 18221 ft | 368 kts | 329° |
| 2026-05-06 19:47 | 51.28117 | 4.05996 | 18879 ft | 373 kts | 343° |
| 2026-05-06 19:48 | 51.30664 | 4.05338 | 19504 ft | 378 kts | 356° |
| 2026-05-06 19:48 | 51.33319 | 4.05248 | 20118 ft | 382 kts | 358° |
| 2026-05-06 19:48 | 51.35984 | 4.05242 | 20703 ft | 387 kts | 359° |
| 2026-05-06 19:48 | 51.38652 | 4.05230 | 21268 ft | 391 kts | 358° |
| 2026-05-06 19:49 | 51.41436 | 4.05195 | 21839 ft | 395 kts | 358° |
| 2026-05-06 19:49 | 51.44215 | 4.05147 | 22386 ft | 399 kts | 358° |
| 2026-05-06 19:49 | 51.47022 | 4.05400 | 22921 ft | 405 kts | 6° |
| 2026-05-06 19:49 | 51.49843 | 4.06426 | 23489 ft | 410 kts | 16° |
| 2026-05-06 19:50 | 51.52505 | 4.08120 | 24014 ft | 415 kts | 22° |
| 2026-05-06 19:50 | 51.55141 | 4.10078 | 24545 ft | 418 kts | 24° |
| 2026-05-06 19:50 | 51.57810 | 4.12108 | 25077 ft | 421 kts | 24° |
| 2026-05-06 19:50 | 51.60457 | 4.14113 | 25594 ft | 424 kts | 24° |
| 2026-05-06 19:51 | 51.63153 | 4.16142 | 26088 ft | 427 kts | 24° |
| 2026-05-06 19:51 | 51.65883 | 4.18186 | 26554 ft | 430 kts | 23° |
| 2026-05-06 19:51 | 51.68623 | 4.20232 | 26940 ft | 434 kts | 23° |
| 2026-05-06 19:51 | 51.71384 | 4.22294 | 27352 ft | 438 kts | 23° |
| 2026-05-06 19:52 | 51.74134 | 4.24349 | 27778 ft | 440 kts | 23° |
| 2026-05-06 19:52 | 51.76905 | 4.26421 | 28199 ft | 443 kts | 23° |
| 2026-05-06 19:52 | 51.79690 | 4.28507 | 28722 ft | 442 kts | 24° |
| 2026-05-06 19:52 | 51.82465 | 4.30590 | 29319 ft | 440 kts | 24° |
| 2026-05-06 19:53 | 51.85215 | 4.32659 | 29878 ft | 439 kts | 24° |
| 2026-05-06 19:53 | 51.87986 | 4.34747 | 30403 ft | 438 kts | 24° |
| 2026-05-06 19:53 | 51.90733 | 4.36821 | 30892 ft | 438 kts | 23° |
| 2026-05-06 19:53 | 51.93494 | 4.38907 | 31349 ft | 437 kts | 24° |
| 2026-05-06 19:54 | 51.96204 | 4.40957 | 31803 ft | 436 kts | 24° |
| 2026-05-06 19:54 | 51.98933 | 4.43025 | 32241 ft | 434 kts | 24° |
| 2026-05-06 19:54 | 52.01659 | 4.45093 | 32662 ft | 433 kts | 24° |
| 2026-05-06 19:54 | 52.04395 | 4.47172 | 33064 ft | 432 kts | 24° |
| 2026-05-06 19:55 | 52.07088 | 4.49222 | 33454 ft | 431 kts | 24° |
| 2026-05-06 19:55 | 52.09780 | 4.51273 | 33841 ft | 430 kts | 24° |
| 2026-05-06 19:55 | 52.12505 | 4.53353 | 34220 ft | 429 kts | 24° |
| 2026-05-06 19:55 | 52.15165 | 4.55386 | 34556 ft | 428 kts | 24° |
| 2026-05-06 19:56 | 52.17819 | 4.57418 | 34853 ft | 427 kts | 24° |
| 2026-05-06 19:56 | 52.20517 | 4.59487 | 35107 ft | 427 kts | 23° |
| 2026-05-06 19:56 | 52.23166 | 4.61519 | 35329 ft | 427 kts | 23° |
| 2026-05-06 19:56 | 52.25875 | 4.63597 | 35527 ft | 427 kts | 23° |
| 2026-05-06 19:57 | 52.28540 | 4.65642 | 35724 ft | 428 kts | 24° |
| 2026-05-06 19:57 | 52.31238 | 4.67717 | 35909 ft | 428 kts | 24° |
| 2026-05-06 19:57 | 52.33934 | 4.69795 | 36079 ft | 429 kts | 24° |
| 2026-05-06 19:57 | 52.36601 | 4.71853 | 36240 ft | 430 kts | 24° |
| 2026-05-06 19:58 | 52.39313 | 4.73951 | 36393 ft | 431 kts | 24° |
| 2026-05-06 19:58 | 52.42036 | 4.76060 | 36545 ft | 433 kts | 24° |
| 2026-05-06 19:58 | 52.44798 | 4.78202 | 36690 ft | 434 kts | 24° |
| 2026-05-06 19:58 | 52.47499 | 4.80343 | 36814 ft | 436 kts | 26° |
| 2026-05-06 19:59 | 52.50155 | 4.82745 | 36942 ft | 438 kts | 30° |
| 2026-05-06 19:59 | 52.52733 | 4.85444 | 37077 ft | 439 kts | 34° |
| 2026-05-06 19:59 | 52.55230 | 4.88459 | 37207 ft | 441 kts | 38° |
| 2026-05-06 19:59 | 52.57629 | 4.91783 | 37322 ft | 442 kts | 41° |
| 2026-05-06 20:00 | 52.59878 | 4.95345 | 37438 ft | 444 kts | 45° |
| 2026-05-06 20:00 | 52.62032 | 4.99028 | 37553 ft | 445 kts | 46° |
| 2026-05-06 20:00 | 52.64221 | 5.02834 | 37660 ft | 447 kts | 46° |
| 2026-05-06 20:00 | 52.66406 | 5.06642 | 37761 ft | 449 kts | 46° |
| 2026-05-06 20:01 | 52.68599 | 5.10460 | 37866 ft | 450 kts | 46° |
| 2026-05-06 20:01 | 52.70777 | 5.14250 | 37968 ft | 451 kts | 46° |
| 2026-05-06 20:01 | 52.75125 | 5.21819 | 37980 ft | 452 kts | 46° |
| 2026-05-06 20:02 | 52.79481 | 5.29418 | 37988 ft | 452 kts | 46° |
| 2026-05-06 20:02 | 52.83818 | 5.37006 | 37983 ft | 451 kts | 46° |
| 2026-05-06 20:03 | 52.88137 | 5.44582 | 37977 ft | 451 kts | 46° |
| 2026-05-06 20:03 | 52.92513 | 5.52283 | 37976 ft | 451 kts | 46° |
| 2026-05-06 20:04 | 52.96858 | 5.59954 | 37970 ft | 451 kts | 46° |
| 2026-05-06 20:04 | 53.01203 | 5.67647 | 37968 ft | 451 kts | 46° |
| 2026-05-06 20:05 | 53.05471 | 5.75232 | 37980 ft | 451 kts | 46° |
| 2026-05-06 20:05 | 53.09822 | 5.82986 | 37980 ft | 451 kts | 46° |
| 2026-05-06 20:06 | 53.14166 | 5.90750 | 37980 ft | 451 kts | 46° |
| 2026-05-06 20:06 | 53.18469 | 5.98467 | 37977 ft | 451 kts | 46° |
| 2026-05-06 20:07 | 53.22722 | 6.06117 | 37975 ft | 452 kts | 47° |
| 2026-05-06 20:07 | 53.27006 | 6.13851 | 37978 ft | 452 kts | 46° |
| 2026-05-06 20:08 | 53.31308 | 6.21643 | 37978 ft | 452 kts | 46° |
| 2026-05-06 20:08 | 53.35540 | 6.29330 | 37975 ft | 452 kts | 46° |
| 2026-05-06 20:09 | 53.39834 | 6.37154 | 38103 ft | 454 kts | 46° |
| 2026-05-06 20:09 | 53.41960 | 6.41036 | 38276 ft | 453 kts | 46° |
| 2026-05-06 20:09 | 53.44072 | 6.44899 | 38424 ft | 453 kts | 46° |
| 2026-05-06 20:10 | 53.46204 | 6.48805 | 38536 ft | 453 kts | 46° |
| 2026-05-06 20:10 | 53.48312 | 6.52672 | 38637 ft | 454 kts | 46° |
| 2026-05-06 20:10 | 53.50420 | 6.56546 | 38757 ft | 455 kts | 47° |
| 2026-05-06 20:10 | 53.52550 | 6.60468 | 38891 ft | 455 kts | 46° |
| 2026-05-06 20:11 | 53.56766 | 6.68249 | 38969 ft | 456 kts | 47° |
| 2026-05-06 20:11 | 53.61000 | 6.76091 | 38966 ft | 456 kts | 47° |
| 2026-05-06 20:12 | 53.65249 | 6.83985 | 38965 ft | 457 kts | 47° |
| 2026-05-06 20:12 | 53.69503 | 6.91911 | 38975 ft | 457 kts | 47° |
| 2026-05-06 20:13 | 53.73751 | 6.99852 | 38972 ft | 457 kts | 47° |
| 2026-05-06 20:13 | 53.77964 | 7.07752 | 38964 ft | 457 kts | 47° |
| 2026-05-06 20:14 | 53.82222 | 7.15764 | 38967 ft | 458 kts | 47° |
| 2026-05-06 20:14 | 53.86451 | 7.23749 | 38970 ft | 459 kts | 47° |
| 2026-05-06 20:15 | 53.90691 | 7.31782 | 38965 ft | 458 kts | 47° |
| 2026-05-06 20:15 | 53.94897 | 7.39776 | 38970 ft | 458 kts | 47° |
| 2026-05-06 20:16 | 53.99128 | 7.47841 | 38964 ft | 458 kts | 47° |
| 2026-05-06 20:16 | 54.03342 | 7.55904 | 38966 ft | 458 kts | 47° |
| 2026-05-06 20:17 | 54.07599 | 7.64072 | 38970 ft | 459 kts | 47° |
| 2026-05-06 20:17 | 54.11826 | 7.72210 | 38967 ft | 460 kts | 48° |
| 2026-05-06 20:18 | 54.16112 | 7.80492 | 38965 ft | 460 kts | 48° |
| 2026-05-06 20:18 | 54.20380 | 7.88770 | 38967 ft | 461 kts | 48° |
| 2026-05-06 20:19 | 54.24616 | 7.97009 | 38964 ft | 461 kts | 48° |
| 2026-05-06 20:19 | 54.28872 | 8.05321 | 38964 ft | 461 kts | 48° |
| 2026-05-06 20:20 | 54.33157 | 8.13714 | 38965 ft | 461 kts | 48° |
| 2026-05-06 20:20 | 54.37413 | 8.22079 | 38965 ft | 461 kts | 48° |
| 2026-05-06 20:21 | 54.41656 | 8.30445 | 38962 ft | 462 kts | 48° |
| 2026-05-06 20:21 | 54.45918 | 8.38878 | 38965 ft | 462 kts | 48° |
| 2026-05-06 20:22 | 54.50141 | 8.47266 | 38961 ft | 462 kts | 48° |
| 2026-05-06 20:22 | 54.54332 | 8.55619 | 38962 ft | 462 kts | 48° |
| 2026-05-06 20:23 | 54.58492 | 8.63939 | 38964 ft | 462 kts | 48° |
| 2026-05-06 20:23 | 54.62686 | 8.72356 | 38962 ft | 462 kts | 49° |
| 2026-05-06 20:24 | 54.66897 | 8.80834 | 38958 ft | 462 kts | 49° |
| 2026-05-06 20:24 | 54.71116 | 8.89357 | 38957 ft | 462 kts | 49° |
| 2026-05-06 20:25 | 54.75343 | 8.97929 | 38955 ft | 463 kts | 49° |
| 2026-05-06 20:25 | 54.79477 | 9.06344 | 38946 ft | 463 kts | 49° |
| 2026-05-06 20:26 | 54.83663 | 9.14898 | 38949 ft | 463 kts | 49° |
| 2026-05-06 20:26 | 54.87913 | 9.23503 | 38951 ft | 463 kts | 48° |
| 2026-05-06 20:27 | 54.92158 | 9.31813 | 38951 ft | 463 kts | 47° |
| 2026-05-06 20:27 | 54.96381 | 9.40124 | 38954 ft | 463 kts | 48° |
| 2026-05-06 20:28 | 55.00648 | 9.48580 | 38967 ft | 463 kts | 48° |
| 2026-05-06 20:28 | 55.04913 | 9.57068 | 38975 ft | 463 kts | 48° |
| 2026-05-06 20:29 | 55.08750 | 9.65913 | 38440 ft | 463 kts | 58° |
| 2026-05-06 20:29 | 55.10397 | 9.70801 | 37684 ft | 472 kts | 63° |
| 2026-05-06 20:29 | 55.11858 | 9.76128 | 37077 ft | 475 kts | 68° |
| 2026-05-06 20:30 | 55.13076 | 9.81712 | 36631 ft | 472 kts | 72° |
| 2026-05-06 20:30 | 55.15057 | 9.92783 | 35787 ft | 467 kts | 73° |
| 2026-05-06 20:30 | 55.16011 | 9.98264 | 35306 ft | 466 kts | 73° |
| 2026-05-06 20:31 | 55.16985 | 10.03826 | 34768 ft | 466 kts | 73° |
| 2026-05-06 20:31 | 55.17950 | 10.09316 | 34150 ft | 467 kts | 73° |
| 2026-05-06 20:31 | 55.18908 | 10.14755 | 33470 ft | 468 kts | 73° |
| 2026-05-06 20:31 | 55.19852 | 10.20119 | 32727 ft | 469 kts | 73° |
| 2026-05-06 20:32 | 55.21125 | 10.27387 | 31659 ft | 472 kts | 74° |
| 2026-05-06 20:32 | 55.21756 | 10.30998 | 31118 ft | 473 kts | 74° |
| 2026-05-06 20:32 | 55.22716 | 10.36512 | 30234 ft | 475 kts | 74° |
| 2026-05-06 20:32 | 55.23669 | 10.42003 | 29353 ft | 476 kts | 74° |
| 2026-05-06 20:33 | 55.24630 | 10.47558 | 28438 ft | 477 kts | 74° |
| 2026-05-06 20:33 | 55.25589 | 10.53113 | 27490 ft | 478 kts | 73° |
| 2026-05-06 20:33 | 55.26530 | 10.58590 | 26726 ft | 475 kts | 73° |
| 2026-05-06 20:33 | 55.27477 | 10.64108 | 26133 ft | 468 kts | 73° |
| 2026-05-06 20:34 | 55.28411 | 10.69539 | 25510 ft | 463 kts | 74° |
| 2026-05-06 20:34 | 55.29323 | 10.74836 | 24864 ft | 459 kts | 75° |
| 2026-05-06 20:34 | 55.30234 | 10.80153 | 24224 ft | 455 kts | 74° |
| 2026-05-06 20:34 | 55.31135 | 10.85442 | 23624 ft | 450 kts | 74° |
| 2026-05-06 20:35 | 55.32019 | 10.90643 | 23042 ft | 446 kts | 74° |
| 2026-05-06 20:35 | 55.32904 | 10.95862 | 22447 ft | 442 kts | 74° |
| 2026-05-06 20:35 | 55.33764 | 11.00974 | 21871 ft | 438 kts | 74° |
| 2026-05-06 20:35 | 55.34610 | 11.06052 | 21317 ft | 434 kts | 74° |
| 2026-05-06 20:36 | 55.35446 | 11.11092 | 20758 ft | 429 kts | 74° |
| 2026-05-06 20:36 | 55.36277 | 11.16115 | 20189 ft | 426 kts | 74° |
| 2026-05-06 20:36 | 55.37092 | 11.21055 | 19639 ft | 421 kts | 73° |
| 2026-05-06 20:36 | 55.37893 | 11.25922 | 19084 ft | 417 kts | 73° |
| 2026-05-06 20:37 | 55.38688 | 11.30764 | 18479 ft | 415 kts | 73° |
| 2026-05-06 20:37 | 55.39479 | 11.35598 | 17855 ft | 413 kts | 73° |
| 2026-05-06 20:37 | 55.40269 | 11.40439 | 17297 ft | 409 kts | 73° |
| 2026-05-06 20:37 | 55.41038 | 11.45170 | 16865 ft | 401 kts | 73° |
| 2026-05-06 20:38 | 55.41806 | 11.49906 | 16641 ft | 388 kts | 73° |
| 2026-05-06 20:38 | 55.42533 | 11.54411 | 16478 ft | 374 kts | 73° |
| 2026-05-06 20:38 | 55.43233 | 11.58745 | 16322 ft | 362 kts | 73° |
| 2026-05-06 20:38 | 55.44141 | 11.62779 | 16151 ft | 349 kts | 57° |
| 2026-05-06 20:39 | 55.45629 | 11.66012 | 15883 ft | 339 kts | 42° |
| 2026-05-06 20:39 | 55.47356 | 11.68728 | 15577 ft | 333 kts | 40° |
| 2026-05-06 20:39 | 55.49118 | 11.71392 | 15245 ft | 328 kts | 39° |
| 2026-05-06 20:39 | 55.50832 | 11.73997 | 14907 ft | 324 kts | 40° |
| 2026-05-06 20:40 | 55.52502 | 11.76567 | 14535 ft | 321 kts | 40° |
| 2026-05-06 20:40 | 55.54167 | 11.79156 | 14146 ft | 319 kts | 40° |
| 2026-05-06 20:40 | 55.55816 | 11.81737 | 13647 ft | 320 kts | 40° |
| 2026-05-06 20:40 | 55.57463 | 11.84325 | 13315 ft | 316 kts | 41° |
| 2026-05-06 20:41 | 55.59091 | 11.86890 | 12987 ft | 312 kts | 40° |
| 2026-05-06 20:41 | 55.60695 | 11.89419 | 12623 ft | 309 kts | 40° |
| 2026-05-06 20:41 | 55.62286 | 11.91931 | 12183 ft | 309 kts | 40° |
| 2026-05-06 20:41 | 55.63885 | 11.94454 | 11905 ft | 302 kts | 40° |
| 2026-05-06 20:42 | 55.65439 | 11.96912 | 11933 ft | 298 kts | 40° |
| 2026-05-06 20:42 | 55.66981 | 11.99355 | 11953 ft | 298 kts | 40° |
| 2026-05-06 20:42 | 55.68515 | 12.01785 | 11679 ft | 301 kts | 40° |
| 2026-05-06 20:42 | 55.70065 | 12.04246 | 11283 ft | 300 kts | 40° |
| 2026-05-06 20:43 | 55.71614 | 12.06707 | 10905 ft | 297 kts | 40° |
| 2026-05-06 20:43 | 55.73008 | 12.09372 | 10495 ft | 297 kts | 59° |
| 2026-05-06 20:43 | 55.73549 | 12.12833 | 10127 ft | 296 kts | 90° |
| 2026-05-06 20:43 | 55.73329 | 12.16458 | 9797 ft | 293 kts | 97° |
| 2026-05-06 20:44 | 55.73054 | 12.19966 | 9468 ft | 290 kts | 97° |
| 2026-05-06 20:44 | 55.72800 | 12.23500 | 9128 ft | 288 kts | 96° |
| 2026-05-06 20:44 | 55.72567 | 12.27016 | 8783 ft | 285 kts | 95° |
| 2026-05-06 20:44 | 55.72349 | 12.30453 | 8452 ft | 282 kts | 95° |
| 2026-05-06 20:45 | 55.72134 | 12.33891 | 8125 ft | 279 kts | 95° |
| 2026-05-06 20:45 | 55.71923 | 12.37273 | 7789 ft | 276 kts | 95° |
| 2026-05-06 20:45 | 55.71711 | 12.40645 | 7459 ft | 273 kts | 95° |
| 2026-05-06 20:45 | 55.71500 | 12.43973 | 7142 ft | 270 kts | 95° |
| 2026-05-06 20:46 | 55.71293 | 12.47238 | 6817 ft | 267 kts | 95° |
| 2026-05-06 20:46 | 55.71221 | 12.50461 | 6495 ft | 262 kts | 81° |
| 2026-05-06 20:46 | 55.71706 | 12.53519 | 6182 ft | 258 kts | 64° |
| 2026-05-06 20:46 | 55.72503 | 12.56353 | 5866 ft | 255 kts | 61° |
| 2026-05-06 20:47 | 55.73318 | 12.59114 | 5557 ft | 253 kts | 61° |
| 2026-05-06 20:47 | 55.74139 | 12.61904 | 5244 ft | 251 kts | 60° |
| 2026-05-06 20:47 | 55.75100 | 12.64470 | 4919 ft | 249 kts | 49° |
| 2026-05-06 20:47 | 55.76353 | 12.66695 | 4906 ft | 254 kts | 42° |
| 2026-05-06 20:48 | 55.77695 | 12.68791 | 4918 ft | 256 kts | 41° |
| 2026-05-06 20:48 | 55.79045 | 12.70868 | 4596 ft | 258 kts | 41° |
| 2026-05-06 20:48 | 55.80402 | 12.72964 | 4259 ft | 255 kts | 41° |
| 2026-05-06 20:48 | 55.81720 | 12.75004 | 4140 ft | 248 kts | 41° |
| 2026-05-06 20:49 | 55.83029 | 12.77023 | 4042 ft | 252 kts | 41° |
| 2026-05-06 20:49 | 55.84382 | 12.79106 | 3993 ft | 252 kts | 41° |
| 2026-05-06 20:49 | 55.85596 | 12.81334 | 3976 ft | 252 kts | 58° |
| 2026-05-06 20:49 | 55.86050 | 12.84225 | 3968 ft | 243 kts | 94° |
| 2026-05-06 20:50 | 55.85429 | 12.86900 | 3975 ft | 230 kts | 129° |
| 2026-05-06 20:50 | 55.84333 | 12.88905 | 3983 ft | 228 kts | 136° |
| 2026-05-06 20:50 | 55.82970 | 12.90345 | 3765 ft | 234 kts | 163° |
| 2026-05-06 20:50 | 55.81358 | 12.90747 | 3477 ft | 235 kts | 173° |
| 2026-05-06 20:51 | 55.79747 | 12.90926 | 3192 ft | 234 kts | 176° |
| 2026-05-06 20:51 | 55.78130 | 12.90669 | 2979 ft | 230 kts | 200° |
| 2026-05-06 20:51 | 55.76839 | 12.89170 | 2983 ft | 223 kts | 220° |
| 2026-05-06 20:51 | 55.75681 | 12.87332 | 2985 ft | 224 kts | 221° |
| 2026-05-06 20:52 | 55.74524 | 12.85460 | 2984 ft | 224 kts | 222° |
| 2026-05-06 20:52 | 55.73397 | 12.83593 | 2878 ft | 225 kts | 221° |
| 2026-05-06 20:52 | 55.72240 | 12.81728 | 2591 ft | 225 kts | 220° |
| 2026-05-06 20:52 | 55.71066 | 12.79901 | 2284 ft | 225 kts | 219° |
| 2026-05-06 20:53 | 55.69873 | 12.78069 | 1968 ft | 224 kts | 219° |
| 2026-05-06 20:53 | 55.68745 | 12.76335 | 1661 ft | 212 kts | 219° |
| 2026-05-06 20:53 | 55.67663 | 12.74666 | 1377 ft | 202 kts | 219° |
| 2026-05-06 20:53 | 55.66653 | 12.73105 | 1194 ft | 187 kts | 219° |
| 2026-05-06 20:54 | 55.65707 | 12.71641 | 938 ft | 172 kts | 219° |
| 2026-05-06 20:54 | 55.64840 | 12.70303 | 669 ft | 158 kts | 219° |
| 2026-05-06 20:54 | 55.64048 | 12.69079 | 444 ft | 144 kts | 218° |
| 2026-05-06 20:54 | 55.63335 | 12.67976 | 243 ft | 130 kts | 218° |
| 2026-05-06 20:55 | 55.62659 | 12.66933 | 85 ft | 127 kts | 218° |
| 2026-05-06 20:55 | 55.62015 | 12.65950 | 28 ft | 109 kts | 222° |
| 2026-05-06 20:55 | 55.61573 | 12.65262 | 25 ft | 60 kts | 229° |
| 2026-05-06 20:55 | 55.61361 | 12.64909 | 27 ft | 33 kts | 232° |
| 2026-05-06 20:56 | 55.61272 | 12.64677 | 27 ft | 6 kts | 245° |
| 2026-05-06 20:56 | 55.61270 | 12.64672 | 27 ft | 0 kts | 244° |
| 2026-05-06 20:56 | 55.61269 | 12.64670 | 27 ft | 1 kts | 244° |
| 2026-05-06 20:56 | 55.61261 | 12.64637 | 27 ft | 4 kts | 249° |
| 2026-05-06 20:57 | 55.61253 | 12.64596 | 27 ft | 0 kts | 251° |
| 2026-05-06 20:57 | 55.61253 | 12.64592 | 27 ft | 0 kts | 252° |
| 2026-05-06 20:58 | 55.61252 | 12.64591 | 27 ft | 0 kts | 252° |
| 2026-05-06 20:58 | 55.61251 | 12.64583 | 27 ft | 0 kts | 252° |
| 2026-05-06 20:59 | 55.61250 | 12.64581 | 27 ft | 0 kts | 252° |
| 2026-05-06 20:59 | 55.61250 | 12.64578 | 27 ft | 1 kts | 252° |
| 2026-05-06 20:59 | 55.61241 | 12.64529 | 27 ft | 8 kts | 252° |
| 2026-05-06 21:00 | 55.61216 | 12.64393 | 26 ft | 13 kts | 252° |
| 2026-05-06 21:00 | 55.61188 | 12.64234 | 26 ft | 13 kts | 268° |
| 2026-05-06 21:00 | 55.61241 | 12.64115 | 27 ft | 13 kts | 348° |
| 2026-05-06 21:00 | 55.61332 | 12.64167 | 27 ft | 14 kts | 33° |
| 2026-05-06 21:01 | 55.61417 | 12.64269 | 28 ft | 15 kts | 33° |
| 2026-05-06 21:01 | 55.61510 | 12.64377 | 27 ft | 16 kts | 33° |
| 2026-05-06 21:01 | 55.61613 | 12.64493 | 26 ft | 17 kts | 33° |
| 2026-05-06 21:01 | 55.61716 | 12.64614 | 27 ft | 17 kts | 35° |
| 2026-05-06 21:02 | 55.61820 | 12.64734 | 27 ft | 18 kts | 32° |
| 2026-05-06 21:02 | 55.61932 | 12.64860 | 25 ft | 19 kts | 33° |
| 2026-05-06 21:02 | 55.62046 | 12.64993 | 25 ft | 19 kts | 34° |
| 2026-05-06 21:02 | 55.62155 | 12.65119 | 30 ft | 17 kts | 33° |
| 2026-05-06 21:03 | 55.62264 | 12.65118 | 26 ft | 18 kts | 308° |
| 2026-05-06 21:03 | 55.62331 | 12.64926 | 26 ft | 18 kts | 302° |
| 2026-05-06 21:03 | 55.62400 | 12.64737 | 26 ft | 18 kts | 302° |
| 2026-05-06 21:03 | 55.62510 | 12.64652 | 26 ft | 18 kts | 358° |
| 2026-05-06 21:04 | 55.62635 | 12.64662 | 26 ft | 16 kts | 13° |
| 2026-05-06 21:04 | 55.62682 | 12.64672 | 26 ft | 4 kts | 334° |
| 2026-05-06 21:04 | 55.62693 | 12.64622 | 26 ft | 3 kts | 278° |
| 2026-05-06 21:04 | 55.62695 | 12.64601 | 26 ft | 1 kts | 279° |
| 2026-05-06 21:05 | 55.62697 | 12.64586 | 26 ft | 0 kts | 280° |